createdAt,value
2017-04-23T00:00:07.991Z,49.81
2017-04-23T00:00:29.750Z,49.89
2017-04-23T00:00:56.240Z,49.62
2017-04-23T00:01:17.944Z,49.67
2017-04-23T00:01:39.739Z,49.61
2017-04-23T00:02:11.002Z,49.75
2017-04-23T00:02:32.717Z,49.59
2017-04-23T00:03:31.240Z,49.79
2017-04-23T00:03:57.800Z,49.96
2017-04-23T00:04:29.064Z,50.02
2017-04-23T00:04:50.869Z,50.02
2017-04-23T00:05:58.261Z,49.86
2017-04-23T00:06:20.056Z,50.09
2017-04-23T00:06:46.543Z,50.05
2017-04-23T00:07:08.250Z,50.03
2017-04-23T00:08:06.760Z,49.83
2017-04-23T00:08:28.507Z,49.94
2017-04-23T00:08:59.764Z,49.86
2017-04-23T00:09:21.578Z,49.99
2017-04-23T00:09:43.291Z,49.94
2017-04-23T00:10:09.861Z,49.96
2017-04-23T00:10:31.596Z,50.01
2017-04-23T00:11:29.978Z,50.45
2017-04-23T00:11:56.450Z,50.50
2017-04-23T00:12:22.933Z,50.61
2017-04-23T00:12:44.692Z,50.66
2017-04-23T00:13:15.941Z,50.65
2017-04-23T00:13:37.658Z,50.70
2017-04-23T00:14:08.918Z,50.94
2017-04-23T00:14:30.721Z,50.89
2017-04-23T00:15:01.979Z,50.88
2017-04-23T00:15:23.760Z,50.83
2017-04-23T00:16:22.085Z,51.32
2017-04-23T00:16:43.884Z,51.20
2017-04-23T00:17:10.360Z,51.05
2017-04-23T00:17:32.096Z,50.97
2017-04-23T00:18:03.473Z,50.87
2017-04-23T00:18:25.126Z,50.71
2017-04-23T00:18:46.866Z,50.73
2017-04-23T00:19:18.122Z,51.00
2017-04-23T00:19:39.925Z,50.93
2017-04-23T00:20:01.630Z,50.88
2017-04-23T00:20:28.142Z,50.95
2017-04-23T00:20:49.946Z,51.02
2017-04-23T00:21:11.698Z,51.00
2017-04-23T00:21:42.985Z,51.20
2017-04-23T00:22:04.773Z,51.52
2017-04-23T00:22:26.486Z,51.42
2017-04-23T00:22:57.756Z,51.54
2017-04-23T00:23:19.530Z,51.63
2017-04-23T00:23:46.015Z,51.68
2017-04-23T00:24:07.741Z,51.49
2017-04-23T00:24:39.003Z,51.65
2017-04-23T00:25:00.824Z,51.68
2017-04-23T00:25:22.566Z,51.73
2017-04-23T00:25:53.956Z,51.55
2017-04-23T00:26:15.695Z,51.48
2017-04-23T00:26:42.190Z,51.32
2017-04-23T00:27:03.899Z,51.52
2017-04-23T00:27:30.491Z,51.61
2017-04-23T00:27:56.997Z,51.33
2017-04-23T00:28:55.404Z,51.28
2017-04-23T00:29:17.132Z,51.26
2017-04-23T00:29:48.391Z,51.20
2017-04-23T00:30:10.195Z,51.23
2017-04-23T00:30:36.665Z,51.29
2017-04-23T00:30:58.386Z,51.28
2017-04-23T00:31:20.209Z,51.31
2017-04-23T00:31:46.823Z,51.47
2017-04-23T00:32:08.650Z,51.45
2017-04-23T00:32:39.918Z,51.45
2017-04-23T00:33:01.790Z,51.29
2017-04-23T00:33:33.067Z,51.15
2017-04-23T00:33:54.763Z,51.24
2017-04-23T00:34:26.146Z,51.11
2017-04-23T00:34:47.791Z,51.76
2017-04-23T00:35:19.078Z,52.15
2017-04-23T00:35:40.882Z,52.11
2017-04-23T00:36:12.127Z,51.83
2017-04-23T00:36:33.868Z,51.75
2017-04-23T00:37:05.119Z,52.06
2017-04-23T00:37:26.912Z,51.97
2017-04-23T00:37:48.637Z,52.03
2017-04-23T00:38:20.022Z,51.97
2017-04-23T00:38:41.663Z,51.85
2017-04-23T00:39:12.953Z,51.72
2017-04-23T00:39:34.728Z,51.90
2017-04-23T00:40:08.973Z,52.11
2017-04-23T00:40:35.313Z,52.51
2017-04-23T00:40:57.123Z,52.60
2017-04-23T00:41:28.408Z,53.12
2017-04-23T00:41:50.120Z,53.14
2017-04-23T00:42:48.512Z,52.72
2017-04-23T00:43:15.011Z,52.42
2017-04-23T00:44:22.310Z,52.51
2017-04-23T00:44:48.823Z,52.38
2017-04-23T00:45:15.357Z,52.41
2017-04-23T00:45:37.063Z,52.39
2017-04-23T00:45:58.790Z,52.63
2017-04-23T00:46:25.285Z,52.69
2017-04-23T00:46:47.081Z,52.80
2017-04-23T00:47:18.361Z,52.84
2017-04-23T00:47:40.087Z,52.68
2017-04-23T00:48:01.883Z,52.65
2017-04-23T00:48:28.383Z,53.26
2017-04-23T00:48:50.130Z,53.35
2017-04-23T00:49:16.702Z,53.08
2017-04-23T00:49:38.419Z,53.09
2017-04-23T00:50:09.702Z,52.95
2017-04-23T00:50:31.460Z,53.10
2017-04-23T00:50:53.199Z,53.31
2017-04-23T00:51:19.698Z,53.38
2017-04-23T00:51:41.504Z,53.42
2017-04-23T00:52:39.851Z,53.10
2017-04-23T00:53:01.653Z,53.28
2017-04-23T00:53:28.144Z,53.29
2017-04-23T00:53:49.861Z,53.28
2017-04-23T00:54:11.586Z,53.48
2017-04-23T00:54:38.130Z,53.85
2017-04-23T00:54:59.878Z,53.73
2017-04-23T00:55:26.374Z,53.77
2017-04-23T00:55:48.098Z,54.07
2017-04-23T00:56:19.351Z,53.97
2017-04-23T00:56:41.250Z,53.67
2017-04-23T00:57:12.492Z,53.47
2017-04-23T00:57:34.382Z,53.43
2017-04-23T00:58:00.960Z,53.50
2017-04-23T00:58:22.716Z,53.43
2017-04-23T00:58:44.417Z,53.64
2017-04-23T00:59:15.669Z,54.08
2017-04-23T00:59:37.478Z,54.16
2017-04-23T00:59:59.201Z,54.00
2017-04-23T01:01:06.535Z,54.30
2017-04-23T01:01:28.421Z,54.49
2017-04-23T01:01:50.140Z,54.45
2017-04-23T01:02:21.389Z,54.42
2017-04-23T01:02:43.228Z,54.26
2017-04-23T01:03:50.594Z,54.64
2017-04-23T01:04:12.319Z,54.36
2017-04-23T01:05:19.682Z,54.36
2017-04-23T01:05:41.396Z,54.59
2017-04-23T01:06:03.107Z,54.81
2017-04-23T01:06:34.532Z,54.67
2017-04-23T01:06:56.235Z,54.50
2017-04-23T01:07:17.943Z,54.30
2017-04-23T01:07:44.466Z,54.04
2017-04-23T01:08:06.279Z,53.94
2017-04-23T01:08:32.773Z,54.33
2017-04-23T01:08:54.491Z,54.15
2017-04-23T01:09:16.280Z,54.12
2017-04-23T01:10:18.814Z,54.12
2017-04-23T01:10:45.497Z,53.94
2017-04-23T01:11:52.864Z,53.67
2017-04-23T01:12:14.699Z,53.90
2017-04-23T01:12:41.258Z,53.75
2017-04-23T01:13:03.331Z,53.78
2017-04-23T01:13:29.903Z,53.68
2017-04-23T01:13:51.692Z,53.39
2017-04-23T01:14:54.316Z,53.46
2017-04-23T01:15:52.959Z,53.27
2017-04-23T01:16:14.787Z,53.82
2017-04-23T01:16:36.523Z,54.48
2017-04-23T01:16:58.255Z,54.67
2017-04-23T01:17:22.609Z,55.11
2017-04-23T01:17:44.711Z,54.85
2017-04-23T01:18:11.230Z,54.79
2017-04-23T01:18:37.793Z,54.75
2017-04-23T01:18:59.870Z,54.79
2017-04-23T01:20:39.006Z,53.64
2017-04-23T01:21:00.748Z,53.61
2017-04-23T01:21:22.529Z,53.31
2017-04-23T01:21:44.360Z,53.47
2017-04-23T01:22:06.300Z,53.37
2017-04-23T01:22:30.652Z,53.22
2017-04-23T01:22:54.983Z,53.36
2017-04-23T01:23:16.761Z,53.57
2017-04-23T01:23:38.563Z,54.15
2017-04-23T01:24:00.329Z,54.45
2017-04-23T01:24:22.103Z,54.38
2017-04-23T01:24:43.843Z,54.29
2017-04-23T01:25:05.600Z,54.10
2017-04-23T01:25:27.350Z,53.96
2017-04-23T01:25:49.111Z,53.75
2017-04-23T01:26:10.885Z,53.82
2017-04-23T01:26:32.658Z,53.61
2017-04-23T01:26:54.408Z,53.50
2017-04-23T01:27:16.201Z,53.25
2017-04-23T01:27:40.895Z,53.11
2017-04-23T01:28:02.728Z,52.99
2017-04-23T01:28:24.491Z,52.76
2017-04-23T01:28:46.274Z,52.79
2017-04-23T01:29:08.033Z,53.05
2017-04-23T01:29:29.863Z,53.01
2017-04-23T01:29:51.589Z,53.32
2017-04-23T01:30:16.182Z,53.35
2017-04-23T01:30:42.861Z,53.20
2017-04-23T01:31:09.391Z,53.13
2017-04-23T01:31:33.888Z,52.91
2017-04-23T01:32:00.380Z,53.25
2017-04-23T01:32:22.105Z,53.43
2017-04-23T01:32:53.473Z,53.09
2017-04-23T01:33:15.237Z,53.10
2017-04-23T01:33:37.075Z,53.28
2017-04-23T01:34:03.610Z,53.54
2017-04-23T01:34:25.393Z,53.33
2017-04-23T01:34:54.770Z,53.23
2017-04-23T01:35:22.374Z,53.64
2017-04-23T01:36:23.408Z,53.82
2017-04-23T01:37:31.065Z,53.51
2017-04-23T01:39:42.779Z,53.87
2017-04-23T01:40:04.601Z,54.14
2017-04-23T01:41:11.929Z,54.17
2017-04-23T01:41:33.973Z,54.20
2017-04-23T01:42:00.485Z,54.29
2017-04-23T01:42:22.232Z,54.26
2017-04-23T01:43:29.535Z,54.93
2017-04-23T01:43:56.175Z,55.20
2017-04-23T01:44:17.976Z,55.33
2017-04-23T01:44:49.396Z,55.47
2017-04-23T01:45:11.170Z,55.66
2017-04-23T01:45:42.455Z,55.63
2017-04-23T01:46:04.180Z,55.62
2017-04-23T01:46:30.732Z,55.49
2017-04-23T01:46:52.453Z,55.49
2017-04-23T01:47:14.479Z,55.75
2017-04-23T01:47:41.220Z,56.24
2017-04-23T01:48:03.325Z,56.30
2017-04-23T01:48:34.580Z,55.95
2017-04-23T01:48:56.898Z,55.67
2017-04-23T01:49:24.099Z,55.51
2017-04-23T01:49:45.997Z,55.25
2017-04-23T01:50:17.393Z,55.17
2017-04-23T01:50:39.460Z,54.94
2017-04-23T01:51:06.015Z,54.95
2017-04-23T01:51:27.749Z,55.31
2017-04-23T01:51:54.252Z,55.76
2017-04-23T01:52:16.168Z,55.88
2017-04-23T01:53:19.172Z,56.34
2017-04-23T01:54:17.612Z,56.22
2017-04-23T01:54:39.520Z,56.10
2017-04-23T01:55:07.222Z,56.20
2017-04-23T01:55:28.950Z,56.17
2017-04-23T01:55:50.825Z,56.22
2017-04-23T01:56:12.597Z,56.53
2017-04-23T01:56:34.361Z,56.11
2017-04-23T01:56:56.145Z,55.96
2017-04-23T01:57:18.018Z,56.15
2017-04-23T01:57:42.614Z,56.23
2017-04-23T01:58:04.341Z,56.30
2017-04-23T01:58:35.620Z,56.50
2017-04-23T01:58:57.418Z,56.51
2017-04-23T01:59:19.290Z,56.44
2017-04-23T01:59:41.044Z,56.50
2017-04-23T02:00:02.822Z,56.33
2017-04-23T02:00:24.538Z,56.31
2017-04-23T02:00:48.839Z,56.41
2017-04-23T02:01:10.500Z,56.31
2017-04-23T02:01:32.337Z,56.26
2017-04-23T02:01:54.098Z,56.68
2017-04-23T02:02:15.860Z,56.83
2017-04-23T02:02:40.633Z,56.85
2017-04-23T02:03:02.419Z,56.84
2017-04-23T02:03:24.316Z,56.90
2017-04-23T02:03:48.962Z,56.88
2017-04-23T02:04:12.831Z,57.21
2017-04-23T02:04:34.587Z,57.22
2017-04-23T02:04:56.364Z,57.21
2017-04-23T02:05:18.110Z,57.23
2017-04-23T02:05:40.027Z,57.27
2017-04-23T02:06:01.931Z,57.42
2017-04-23T02:06:23.659Z,57.62
2017-04-23T02:06:45.577Z,57.63
2017-04-23T02:07:07.295Z,57.84
2017-04-23T02:07:29.056Z,58.06
2017-04-23T02:07:50.793Z,58.02
2017-04-23T02:09:05.517Z,57.58
2017-04-23T02:10:15.433Z,57.07
2017-04-23T02:10:44.534Z,57.09
2017-04-23T02:11:06.369Z,57.23
2017-04-23T02:11:31.088Z,57.17
2017-04-23T02:11:52.844Z,57.25
2017-04-23T02:12:14.572Z,57.14
2017-04-23T02:12:41.172Z,56.88
2017-04-23T02:13:02.926Z,56.77
2017-04-23T02:13:29.883Z,56.82
2017-04-23T02:13:51.706Z,57.00
2017-04-23T02:14:18.295Z,56.81
2017-04-23T02:14:40.156Z,56.86
2017-04-23T02:15:06.906Z,56.72
2017-04-23T02:15:28.657Z,56.70
2017-04-23T02:15:55.199Z,56.68
2017-04-23T02:16:16.933Z,56.78
2017-04-23T02:16:43.795Z,56.92
2017-04-23T02:17:05.603Z,56.87
2017-04-23T02:17:32.433Z,56.70
2017-04-23T02:18:35.614Z,56.48
2017-04-23T02:18:57.308Z,56.21
2017-04-23T02:19:19.005Z,56.30
2017-04-23T02:19:40.839Z,56.55
2017-04-23T02:20:02.557Z,56.63
2017-04-23T02:20:24.351Z,56.61
2017-04-23T02:20:46.189Z,56.84
2017-04-23T02:21:10.538Z,57.13
2017-04-23T02:21:32.341Z,56.85
2017-04-23T02:21:56.795Z,56.87
2017-04-23T02:22:18.944Z,56.58
2017-04-23T02:22:40.698Z,56.60
2017-04-23T02:23:02.436Z,56.59
2017-04-23T02:24:00.926Z,56.67
2017-04-23T02:24:22.635Z,56.94
2017-04-23T02:24:44.363Z,56.41
2017-04-23T02:25:06.148Z,56.25
2017-04-23T02:25:27.845Z,56.27
2017-04-23T02:25:59.089Z,55.99
2017-04-23T02:26:20.887Z,55.96
2017-04-23T02:26:47.374Z,55.99
2017-04-23T02:27:09.107Z,56.06
2017-04-23T02:27:30.900Z,56.27
2017-04-23T02:28:02.155Z,56.01
2017-04-23T02:28:23.879Z,55.96
2017-04-23T02:28:55.141Z,55.91
2017-04-23T02:29:16.948Z,55.88
2017-04-23T02:30:15.294Z,55.84
2017-04-23T02:30:36.988Z,55.68
2017-04-23T02:31:08.234Z,55.59
2017-04-23T02:31:30.026Z,55.67
2017-04-23T02:31:51.742Z,56.02
2017-04-23T02:32:13.444Z,56.27
2017-04-23T02:32:35.150Z,55.98
2017-04-23T02:32:56.963Z,56.20
2017-04-23T02:33:23.432Z,56.41
2017-04-23T02:33:45.184Z,56.35
2017-04-23T02:34:06.848Z,56.50
2017-04-23T02:34:33.428Z,56.59
2017-04-23T02:34:55.140Z,56.51
2017-04-23T02:35:16.841Z,56.33
2017-04-23T02:35:43.408Z,56.05
2017-04-23T02:36:05.104Z,56.00
2017-04-23T02:37:07.696Z,55.79
2017-04-23T02:37:29.418Z,55.74
2017-04-23T02:38:00.669Z,55.60
2017-04-23T02:38:22.469Z,55.73
2017-04-23T02:38:44.173Z,55.96
2017-04-23T02:39:10.660Z,56.08
2017-04-23T02:39:32.446Z,56.10
2017-04-23T02:40:30.752Z,56.58
2017-04-23T02:40:52.565Z,56.61
2017-04-23T02:41:19.053Z,56.31
2017-04-23T02:41:40.739Z,56.25
2017-04-23T02:42:07.288Z,56.14
2017-04-23T02:42:28.998Z,56.31
2017-04-23T02:42:50.711Z,56.14
2017-04-23T02:43:49.212Z,55.92
2017-04-23T02:44:20.475Z,55.90
2017-04-23T02:44:42.274Z,55.79
2017-04-23T02:45:03.979Z,55.81
2017-04-23T02:45:30.452Z,56.00
2017-04-23T02:45:52.177Z,56.01
2017-04-23T02:46:18.734Z,56.11
2017-04-23T02:46:40.453Z,56.24
2017-04-23T02:47:11.731Z,56.58
2017-04-23T02:47:33.568Z,56.50
2017-04-23T02:48:04.821Z,56.36
2017-04-23T02:48:26.530Z,56.27
2017-04-23T02:48:57.772Z,56.28
2017-04-23T02:49:19.552Z,56.17
2017-04-23T02:49:46.041Z,56.24
2017-04-23T02:50:07.749Z,56.29
2017-04-23T02:50:29.552Z,56.43
2017-04-23T02:50:56.032Z,56.23
2017-04-23T02:51:17.724Z,56.35
2017-04-23T02:51:39.534Z,56.37
2017-04-23T02:52:10.787Z,56.44
2017-04-23T02:52:32.495Z,56.45
2017-04-23T02:52:54.299Z,56.45
2017-04-23T02:53:16.016Z,56.59
2017-04-23T02:53:37.754Z,56.90
2017-04-23T02:54:06.535Z,57.37
2017-04-23T02:54:28.247Z,57.33
2017-04-23T02:54:49.975Z,57.48
2017-04-23T02:55:16.540Z,57.11
2017-04-23T02:55:38.297Z,57.01
2017-04-23T02:56:04.783Z,57.25
2017-04-23T02:56:26.505Z,57.19
2017-04-23T02:56:57.763Z,57.18
2017-04-23T02:57:19.538Z,57.00
2017-04-23T02:57:50.808Z,56.76
2017-04-23T02:58:12.582Z,56.65
2017-04-23T02:58:34.314Z,56.51
2017-04-23T02:59:00.798Z,56.62
2017-04-23T02:59:22.590Z,56.79
2017-04-23T03:00:20.900Z,56.80
2017-04-23T03:00:42.687Z,56.95
2017-04-23T03:01:09.163Z,56.86
2017-04-23T03:01:30.869Z,56.86
2017-04-23T03:02:02.126Z,56.79
2017-04-23T03:02:23.910Z,56.98
2017-04-23T03:02:45.623Z,56.85
2017-04-23T03:03:12.092Z,57.23
2017-04-23T03:03:33.867Z,57.26
2017-04-23T03:04:00.362Z,57.40
2017-04-23T03:04:22.070Z,57.60
2017-04-23T03:04:43.855Z,57.72
2017-04-23T03:05:10.338Z,57.51
2017-04-23T03:05:32.027Z,57.53
2017-04-23T03:06:03.272Z,57.63
2017-04-23T03:06:25.057Z,57.31
2017-04-23T03:06:46.770Z,57.28
2017-04-23T03:07:13.261Z,57.11
2017-04-23T03:07:34.960Z,57.07
2017-04-23T03:08:33.236Z,57.39
2017-04-23T03:08:55.039Z,57.48
2017-04-23T03:09:57.547Z,57.60
2017-04-23T03:10:24.121Z,57.52
2017-04-23T03:10:45.818Z,57.67
2017-04-23T03:11:07.542Z,57.89
2017-04-23T03:11:38.787Z,57.67
2017-04-23T03:12:00.566Z,57.27
2017-04-23T03:12:31.822Z,57.48
2017-04-23T03:12:53.611Z,57.55
2017-04-23T03:13:24.873Z,57.67
2017-04-23T03:13:51.349Z,57.75
2017-04-23T03:14:17.915Z,58.00
2017-04-23T03:14:39.613Z,57.99
2017-04-23T03:15:46.983Z,57.94
2017-04-23T03:16:08.705Z,57.85
2017-04-23T03:16:30.430Z,58.12
2017-04-23T03:17:01.672Z,58.25
2017-04-23T03:17:23.419Z,58.28
2017-04-23T03:17:45.208Z,58.69
2017-04-23T03:18:16.420Z,59.06
2017-04-23T03:18:38.234Z,59.09
2017-04-23T03:19:36.633Z,58.67
2017-04-23T03:19:58.353Z,58.66
2017-04-23T03:20:29.613Z,58.69
2017-04-23T03:20:51.457Z,58.76
2017-04-23T03:21:13.152Z,59.13
2017-04-23T03:21:44.413Z,58.96
2017-04-23T03:22:06.288Z,58.71
2017-04-23T03:22:28.091Z,58.41
2017-04-23T03:22:49.789Z,58.43
2017-04-23T03:23:11.508Z,58.37
2017-04-23T03:23:33.208Z,58.35
2017-04-23T03:23:59.802Z,58.19
2017-04-23T03:24:21.512Z,58.21
2017-04-23T03:24:52.759Z,58.17
2017-04-23T03:25:14.558Z,58.56
2017-04-23T03:26:17.067Z,58.16
2017-04-23T03:26:38.881Z,58.36
2017-04-23T03:27:00.601Z,58.36
2017-04-23T03:27:27.087Z,58.17
2017-04-23T03:27:48.905Z,58.10
2017-04-23T03:28:15.381Z,57.75
2017-04-23T03:28:37.112Z,57.71
2017-04-23T03:29:03.715Z,58.22
2017-04-23T03:29:25.457Z,58.16
2017-04-23T03:29:49.949Z,58.30
2017-04-23T03:30:16.533Z,58.33
2017-04-23T03:30:38.237Z,58.45
2017-04-23T03:30:59.940Z,58.76
2017-04-23T03:31:31.364Z,58.92
2017-04-23T03:31:53.108Z,58.93
2017-04-23T03:32:22.267Z,59.04
2017-04-23T03:32:43.958Z,58.88
2017-04-23T03:33:10.436Z,58.93
2017-04-23T03:33:32.136Z,58.94
2017-04-23T03:33:53.841Z,59.00
2017-04-23T03:34:20.395Z,58.92
2017-04-23T03:34:42.238Z,58.97
2017-04-23T03:35:49.641Z,59.26
2017-04-23T03:36:11.488Z,59.44
2017-04-23T03:37:18.771Z,59.88
2017-04-23T03:37:40.574Z,60.04
2017-04-23T03:38:02.268Z,59.86
2017-04-23T03:38:33.561Z,59.74
2017-04-23T03:38:55.452Z,59.60
2017-04-23T03:39:17.226Z,59.47
2017-04-23T03:39:48.600Z,59.40
2017-04-23T03:40:10.252Z,59.42
2017-04-23T03:40:31.958Z,59.44
2017-04-23T03:41:03.229Z,59.42
2017-04-23T03:41:25.041Z,59.40
2017-04-23T03:41:46.769Z,59.47
2017-04-23T03:42:18.040Z,59.56
2017-04-23T03:42:39.833Z,59.65
2017-04-23T03:43:06.315Z,59.86
2017-04-23T03:43:28.024Z,60.09
2017-04-23T03:43:54.600Z,59.86
2017-04-23T03:44:16.320Z,60.07
2017-04-23T03:44:42.813Z,59.88
2017-04-23T03:45:04.537Z,59.98
2017-04-23T03:45:31.111Z,59.79
2017-04-23T03:45:55.536Z,59.84
2017-04-23T03:46:22.025Z,60.14
2017-04-23T03:46:43.798Z,60.31
2017-04-23T03:47:10.268Z,60.34
2017-04-23T03:47:32.067Z,60.13
2017-04-23T03:47:58.617Z,60.11
2017-04-23T03:48:20.337Z,60.45
2017-04-23T03:48:42.036Z,60.50
2017-04-23T03:49:13.299Z,60.88
2017-04-23T03:49:35.106Z,60.82
2017-04-23T03:49:56.824Z,60.72
2017-04-23T03:50:18.541Z,60.77
2017-04-23T03:50:40.323Z,60.51
2017-04-23T03:51:47.618Z,60.86
2017-04-23T03:52:09.456Z,60.81
2017-04-23T03:52:35.948Z,60.79
2017-04-23T03:52:57.673Z,60.50
2017-04-23T03:53:56.149Z,60.79
2017-04-23T03:54:17.882Z,60.68
2017-04-23T03:54:44.366Z,60.43
2017-04-23T03:55:06.178Z,60.25
2017-04-23T03:55:37.448Z,60.55
2017-04-23T03:55:59.171Z,60.29
2017-04-23T03:56:20.952Z,59.93
2017-04-23T03:56:47.447Z,60.02
2017-04-23T03:57:09.199Z,60.29
2017-04-23T03:58:07.719Z,61.71
2017-04-23T03:59:06.035Z,61.37
2017-04-23T03:59:27.740Z,61.34
2017-04-23T03:59:54.270Z,61.24
2017-04-23T04:00:15.983Z,61.04
2017-04-23T04:00:47.263Z,60.75
2017-04-23T04:01:09.057Z,60.51
2017-04-23T04:01:30.798Z,60.43
2017-04-23T04:01:57.287Z,60.48
2017-04-23T04:02:19.113Z,60.93
2017-04-23T04:02:40.848Z,61.52
2017-04-23T04:03:07.331Z,61.23
2017-04-23T04:03:29.041Z,61.21
2017-04-23T04:03:55.607Z,61.49
2017-04-23T04:04:17.309Z,61.38
2017-04-23T04:04:39.018Z,61.60
2017-04-23T04:05:05.495Z,61.34
2017-04-23T04:05:27.325Z,61.00
2017-04-23T04:05:51.910Z,60.97
2017-04-23T04:06:13.627Z,61.14
2017-04-23T04:06:35.345Z,61.08
2017-04-23T04:07:01.898Z,61.09
2017-04-23T04:07:23.603Z,61.04
2017-04-23T04:07:45.331Z,61.63
2017-04-23T04:08:11.886Z,62.00
2017-04-23T04:08:33.623Z,62.24
2017-04-23T04:09:00.099Z,62.20
2017-04-23T04:09:21.814Z,62.24
2017-04-23T04:09:43.625Z,61.99
2017-04-23T04:10:41.931Z,61.96
2017-04-23T04:11:03.721Z,62.17
2017-04-23T04:11:25.492Z,62.22
2017-04-23T04:11:51.967Z,62.20
2017-04-23T04:12:13.698Z,61.96
2017-04-23T04:12:40.260Z,61.84
2017-04-23T04:13:01.981Z,61.95
2017-04-23T04:13:23.690Z,62.17
2017-04-23T04:13:50.256Z,62.30
2017-04-23T04:14:11.981Z,62.37
2017-04-23T04:14:38.477Z,62.45
2017-04-23T04:15:00.185Z,62.45
2017-04-23T04:16:02.702Z,63.24
2017-04-23T04:16:24.399Z,63.38
2017-04-23T04:17:26.926Z,63.10
2017-04-23T04:17:48.650Z,62.63
2017-04-23T04:18:49.926Z,62.33
2017-04-23T04:19:11.636Z,62.34
2017-04-23T04:19:42.883Z,62.13
2017-04-23T04:20:04.692Z,61.98
2017-04-23T04:20:35.952Z,61.78
2017-04-23T04:20:57.753Z,61.74
2017-04-23T04:21:19.481Z,61.81
2017-04-23T04:21:50.793Z,61.83
2017-04-23T04:22:12.541Z,61.58
2017-04-23T04:22:34.234Z,61.62
2017-04-23T04:23:05.478Z,62.01
2017-04-23T04:23:27.301Z,61.97
2017-04-23T04:23:53.806Z,61.81
2017-04-23T04:24:15.509Z,62.24
2017-04-23T04:24:42.069Z,62.22
2017-04-23T04:25:03.782Z,62.51
2017-04-23T04:25:25.483Z,62.48
2017-04-23T04:25:52.044Z,62.42
2017-04-23T04:26:13.761Z,62.52
2017-04-23T04:26:40.315Z,62.31
2017-04-23T04:27:06.892Z,62.44
2017-04-23T04:27:28.722Z,62.50
2017-04-23T04:27:50.427Z,62.22
2017-04-23T04:28:12.154Z,61.96
2017-04-23T04:28:33.876Z,61.94
2017-04-23T04:28:55.686Z,61.97
2017-04-23T04:29:17.422Z,61.77
2017-04-23T04:29:39.164Z,61.51
2017-04-23T04:30:00.875Z,61.21
2017-04-23T04:30:22.672Z,60.94
2017-04-23T04:30:49.164Z,60.79
2017-04-23T04:31:10.881Z,60.66
2017-04-23T04:31:42.149Z,60.73
2017-04-23T04:32:03.957Z,61.26
2017-04-23T04:32:35.240Z,61.40
2017-04-23T04:32:57.031Z,61.48
2017-04-23T04:33:23.526Z,61.93
2017-04-23T04:33:45.245Z,62.29
2017-04-23T04:34:06.957Z,62.47
2017-04-23T04:35:05.472Z,62.39
2017-04-23T04:35:27.198Z,62.44
2017-04-23T04:36:25.600Z,62.25
2017-04-23T04:36:47.326Z,62.65
2017-04-23T04:37:18.602Z,62.62
2017-04-23T04:37:40.409Z,62.67
2017-04-23T04:38:06.907Z,62.70
2017-04-23T04:38:28.611Z,62.83
2017-04-23T04:38:55.211Z,62.53
2017-04-23T04:39:16.953Z,62.59
2017-04-23T04:39:38.662Z,62.74
2017-04-23T04:40:37.211Z,62.62
2017-04-23T04:41:08.494Z,62.37
2017-04-23T04:41:30.256Z,62.46
2017-04-23T04:41:51.977Z,62.40
2017-04-23T04:42:18.459Z,62.24
2017-04-23T04:42:40.166Z,62.28
2017-04-23T04:43:38.577Z,62.10
2017-04-23T04:44:09.847Z,61.74
2017-04-23T04:44:31.648Z,61.85
2017-04-23T04:45:29.961Z,61.67
2017-04-23T04:47:13.373Z,61.80
2017-04-23T04:48:16.510Z,61.83
2017-04-23T04:49:15.152Z,62.09
2017-04-23T04:49:36.882Z,62.05
2017-04-23T04:49:58.669Z,61.94
2017-04-23T04:50:20.447Z,61.95
2017-04-23T04:50:42.194Z,62.04
2017-04-23T04:51:03.897Z,61.94
2017-04-23T04:51:25.630Z,61.72
2017-04-23T04:51:47.433Z,61.43
2017-04-23T04:52:09.132Z,61.44
2017-04-23T04:52:30.864Z,61.55
2017-04-23T04:52:52.623Z,61.57
2017-04-23T04:53:14.506Z,61.71
2017-04-23T04:53:36.273Z,61.75
2017-04-23T04:54:34.751Z,61.72
2017-04-23T04:55:42.876Z,62.70
2017-04-23T04:56:14.122Z,62.99
2017-04-23T04:56:35.859Z,62.95
2017-04-23T04:56:57.698Z,62.90
2017-04-23T04:58:00.316Z,63.14
2017-04-23T04:58:22.141Z,62.98
2017-04-23T04:58:43.962Z,63.04
2017-04-23T04:59:05.730Z,63.64
2017-04-23T04:59:27.479Z,63.80
2017-04-23T04:59:49.233Z,63.55
2017-04-23T05:00:11.137Z,63.41
2017-04-23T05:00:32.918Z,63.19
2017-04-23T05:00:54.682Z,63.28
2017-04-23T05:01:16.449Z,63.05
2017-04-23T05:01:38.244Z,62.83
2017-04-23T05:02:00.004Z,62.97
2017-04-23T05:02:21.795Z,63.44
2017-04-23T05:02:48.365Z,63.48
2017-04-23T05:03:46.701Z,63.52
2017-04-23T05:04:08.465Z,63.42
2017-04-23T05:04:30.204Z,63.34
2017-04-23T05:04:51.970Z,63.61
2017-04-23T05:05:13.717Z,63.64
2017-04-23T05:05:35.467Z,63.39
2017-04-23T05:05:57.214Z,63.35
2017-04-23T05:06:18.971Z,63.40
2017-04-23T05:06:40.902Z,63.43
2017-04-23T05:07:02.653Z,63.34
2017-04-23T05:08:05.161Z,63.31
2017-04-23T05:08:27.026Z,63.32
2017-04-23T05:08:49.168Z,63.58
2017-04-23T05:09:51.689Z,63.05
2017-04-23T05:10:13.405Z,62.68
2017-04-23T05:10:35.151Z,62.51
2017-04-23T05:10:56.908Z,62.28
2017-04-23T05:11:18.671Z,62.25
2017-04-23T05:11:40.433Z,62.64
2017-04-23T05:12:02.238Z,62.70
2017-04-23T05:12:24.001Z,62.75
2017-04-23T05:12:45.740Z,63.25
2017-04-23T05:13:07.489Z,63.54
2017-04-23T05:13:29.274Z,63.81
2017-04-23T05:13:51.062Z,63.99
2017-04-23T05:14:12.761Z,63.68
2017-04-23T05:14:34.452Z,63.82
2017-04-23T05:14:56.210Z,63.98
2017-04-23T05:15:17.944Z,63.83
2017-04-23T05:15:44.469Z,63.75
2017-04-23T05:16:11.001Z,64.09
2017-04-23T05:16:32.735Z,64.06
2017-04-23T05:16:59.251Z,63.98
2017-04-23T05:17:20.951Z,64.10
2017-04-23T05:17:42.765Z,64.39
2017-04-23T05:18:04.501Z,64.27
2017-04-23T05:18:26.217Z,64.03
2017-04-23T05:18:47.920Z,63.77
2017-04-23T05:19:09.644Z,63.73
2017-04-23T05:20:08.107Z,63.20
2017-04-23T05:20:29.935Z,63.09
2017-04-23T05:20:51.686Z,62.85
2017-04-23T05:21:13.395Z,62.92
2017-04-23T05:21:35.087Z,63.06
2017-04-23T05:21:56.834Z,63.19
2017-04-23T05:22:18.652Z,63.16
2017-04-23T05:22:40.394Z,63.24
2017-04-23T05:23:02.129Z,63.28
2017-04-23T05:23:23.892Z,63.31
2017-04-23T05:23:45.678Z,63.82
2017-04-23T05:24:07.446Z,64.05
2017-04-23T05:24:29.203Z,64.21
2017-04-23T05:24:50.950Z,64.01
2017-04-23T05:25:12.687Z,63.83
2017-04-23T05:25:34.438Z,63.59
2017-04-23T05:25:56.187Z,63.53
2017-04-23T05:26:17.920Z,63.54
2017-04-23T05:26:39.673Z,63.50
2017-04-23T05:27:01.413Z,63.54
2017-04-23T05:27:23.148Z,63.65
2017-04-23T05:27:45.102Z,63.61
2017-04-23T05:28:06.823Z,63.49
2017-04-23T05:28:28.581Z,63.24
2017-04-23T05:28:50.358Z,63.09
2017-04-23T05:29:12.279Z,62.75
2017-04-23T05:29:34.038Z,62.73
2017-04-23T05:29:55.811Z,62.74
2017-04-23T05:30:17.534Z,62.74
2017-04-23T05:30:39.402Z,62.59
2017-04-23T05:31:01.160Z,62.62
2017-04-23T05:31:22.910Z,62.38
2017-04-23T05:31:44.691Z,62.33
2017-04-23T05:32:06.560Z,62.66
2017-04-23T05:32:28.293Z,62.74
2017-04-23T05:32:50.113Z,62.79
2017-04-23T05:33:11.852Z,62.50
2017-04-23T05:33:33.670Z,62.47
2017-04-23T05:33:55.412Z,62.49
2017-04-23T05:34:17.228Z,62.68
2017-04-23T05:34:39.090Z,51.79
2017-04-23T05:35:00.828Z,62.37
2017-04-23T05:35:22.568Z,62.19
2017-04-23T05:35:44.357Z,61.91
2017-04-23T05:36:06.096Z,61.75
2017-04-23T05:36:27.834Z,62.22
2017-04-23T05:36:49.730Z,62.51
2017-04-23T05:37:11.446Z,62.63
2017-04-23T05:38:13.988Z,63.03
2017-04-23T05:38:45.071Z,63.19
2017-04-23T05:39:06.818Z,62.89
2017-04-23T05:39:28.591Z,62.98
2017-04-23T05:39:50.316Z,63.06
2017-04-23T05:40:12.068Z,63.24
2017-04-23T05:40:33.822Z,63.30
2017-04-23T05:40:55.635Z,62.89
2017-04-23T05:41:17.361Z,62.86
2017-04-23T05:41:39.091Z,62.62
2017-04-23T05:42:00.825Z,62.50
2017-04-23T05:42:22.587Z,62.53
2017-04-23T05:43:23.565Z,62.40
2017-04-23T05:43:50.101Z,62.17
2017-04-23T05:44:11.834Z,62.25
2017-04-23T05:45:14.378Z,62.29
2017-04-23T05:46:16.997Z,62.83
2017-04-23T05:47:15.314Z,62.62
2017-04-23T05:47:37.125Z,62.75
2017-04-23T05:47:58.874Z,62.81
2017-04-23T05:48:20.889Z,62.78
2017-04-23T05:48:42.658Z,62.69
2017-04-23T05:49:04.668Z,62.52
2017-04-23T05:49:26.409Z,62.62
2017-04-23T05:49:48.375Z,62.65
2017-04-23T05:50:09.999Z,62.66
2017-04-23T05:50:31.753Z,62.70
2017-04-23T05:50:53.495Z,62.62
2017-04-23T05:51:15.309Z,62.54